sensor_id;sensor_type;location;lat;lon;timestamp;pressure;altitude;pressure_sealevel;temperature;humidity
46303;BME280;32029;51.358;5.628;2023-07-30T00:00:38;100706.81;;;18.36;85.28
46303;BME280;32029;51.358;5.628;2023-07-30T00:03:09;100713.72;;;18.33;85.32
46303;BME280;32029;51.358;5.628;2023-07-30T00:05:56;100721.78;;;18.35;85.45
46303;BME280;32029;51.358;5.628;2023-07-30T00:08:23;100717.81;;;18.31;86.04
46303;BME280;32029;51.358;5.628;2023-07-30T00:10:52;100697.16;;;18.15;85.65
46303;BME280;32029;51.358;5.628;2023-07-30T00:13:18;100705.84;;;18.19;85.79
46303;BME280;32029;51.358;5.628;2023-07-30T00:15:56;100712.47;;;18.18;86.14
46303;BME280;32029;51.358;5.628;2023-07-30T00:18:24;100717.31;;;18.10;86.37
46303;BME280;32029;51.358;5.628;2023-07-30T00:20:58;100711.25;;;18.02;86.46
46303;BME280;32029;51.358;5.628;2023-07-30T00:23:29;100707.88;;;18.00;86.88
46303;BME280;32029;51.358;5.628;2023-07-30T00:25:55;100724.06;;;18.03;86.56
46303;BME280;32029;51.358;5.628;2023-07-30T00:28:23;100672.44;;;17.72;87.05
46303;BME280;32029;51.358;5.628;2023-07-30T00:30:50;100689.63;;;17.80;86.76
46303;BME280;32029;51.358;5.628;2023-07-30T00:33:18;100671.91;;;17.63;86.89
46303;BME280;32029;51.358;5.628;2023-07-30T00:35:44;100705.56;;;17.85;87.14
46303;BME280;32029;51.358;5.628;2023-07-30T00:38:11;100709.78;;;17.87;87.60
46303;BME280;32029;51.358;5.628;2023-07-30T00:40:43;100684.72;;;17.64;87.73
46303;BME280;32029;51.358;5.628;2023-07-30T00:43:10;100690.66;;;17.68;87.98
46303;BME280;32029;51.358;5.628;2023-07-30T00:45:40;100720.75;;;17.82;88.01
46303;BME280;32029;51.358;5.628;2023-07-30T00:48:07;100703.44;;;17.69;88.38
46303;BME280;32029;51.358;5.628;2023-07-30T00:50:34;100717.69;;;17.72;88.24
46303;BME280;32029;51.358;5.628;2023-07-30T00:53:01;100686.00;;;17.50;88.25
46303;BME280;32029;51.358;5.628;2023-07-30T00:55:28;100701.34;;;17.52;88.50
46303;BME280;32029;51.358;5.628;2023-07-30T00:57:56;100728.97;;;17.59;89.16
46303;BME280;32029;51.358;5.628;2023-07-30T01:00:24;100736.59;;;17.63;89.00
46303;BME280;32029;51.358;5.628;2023-07-30T01:02:52;100729.47;;;17.56;89.35
46303;BME280;32029;51.358;5.628;2023-07-30T01:05:19;100697.38;;;17.30;88.93
46303;BME280;32029;51.358;5.628;2023-07-30T01:07:46;100727.38;;;17.51;89.77
46303;BME280;32029;51.358;5.628;2023-07-30T01:10:13;100706.81;;;17.29;89.91
46303;BME280;32029;51.358;5.628;2023-07-30T01:12:41;100718.91;;;17.46;89.69
46303;BME280;32029;51.358;5.628;2023-07-30T01:15:09;100718.31;;;17.44;89.87
46303;BME280;32029;51.358;5.628;2023-07-30T01:17:39;100735.84;;;17.56;89.83
46303;BME280;32029;51.358;5.628;2023-07-30T01:20:06;100732.91;;;17.51;89.76
46303;BME280;32029;51.358;5.628;2023-07-30T01:22:36;100746.09;;;17.56;89.76
46303;BME280;32029;51.358;5.628;2023-07-30T01:25:03;100738.13;;;17.48;90.00
46303;BME280;32029;51.358;5.628;2023-07-30T01:27:35;100751.28;;;17.52;90.22
46303;BME280;32029;51.358;5.628;2023-07-30T01:30:18;100755.09;;;17.51;90.15
46303;BME280;32029;51.358;5.628;2023-07-30T01:32:49;100738.19;;;17.41;90.47
46303;BME280;32029;51.358;5.628;2023-07-30T01:35:20;100743.28;;;17.44;90.17
46303;BME280;32029;51.358;5.628;2023-07-30T01:37:50;100769.47;;;17.48;90.48
46303;BME280;32029;51.358;5.628;2023-07-30T01:40:18;100760.75;;;17.45;90.42
46303;BME280;32029;51.358;5.628;2023-07-30T01:42:50;100749.84;;;17.31;90.76
46303;BME280;32029;51.358;5.628;2023-07-30T01:45:18;100741.25;;;17.21;91.09
46303;BME280;32029;51.358;5.628;2023-07-30T01:47:44;100741.56;;;17.13;90.94
46303;BME280;32029;51.358;5.628;2023-07-30T01:50:11;100767.03;;;17.22;91.39
46303;BME280;32029;51.358;5.628;2023-07-30T01:52:39;100770.28;;;17.19;91.23
46303;BME280;32029;51.358;5.628;2023-07-30T01:55:06;100769.66;;;17.17;91.72
46303;BME280;32029;51.358;5.628;2023-07-30T01:57:33;100760.25;;;17.18;91.99
46303;BME280;32029;51.358;5.628;2023-07-30T02:00:02;100754.78;;;17.11;91.89
46303;BME280;32029;51.358;5.628;2023-07-30T02:02:29;100750.56;;;17.08;91.58
46303;BME280;32029;51.358;5.628;2023-07-30T02:04:56;100748.88;;;17.07;92.06
46303;BME280;32029;51.358;5.628;2023-07-30T02:07:23;100736.16;;;17.00;91.81
46303;BME280;32029;51.358;5.628;2023-07-30T02:09:50;100752.03;;;17.11;92.14
46303;BME280;32029;51.358;5.628;2023-07-30T02:12:16;100764.72;;;17.19;91.88
46303;BME280;32029;51.358;5.628;2023-07-30T02:14:43;100764.47;;;17.20;91.85
46303;BME280;32029;51.358;5.628;2023-07-30T02:17:10;100740.41;;;17.02;91.71
46303;BME280;32029;51.358;5.628;2023-07-30T02:19:37;100745.50;;;17.05;92.15
46303;BME280;32029;51.358;5.628;2023-07-30T02:22:04;100762.41;;;17.15;92.05
46303;BME280;32029;51.358;5.628;2023-07-30T02:24:31;100759.03;;;17.13;92.18
46303;BME280;32029;51.358;5.628;2023-07-30T02:26:58;100744.66;;;17.05;92.53
46303;BME280;32029;51.358;5.628;2023-07-30T02:29:25;100760.72;;;17.14;92.13
46303;BME280;32029;51.358;5.628;2023-07-30T02:31:51;100739.47;;;17.08;92.13
46303;BME280;32029;51.358;5.628;2023-07-30T02:34:18;100754.78;;;17.11;92.41
46303;BME280;32029;51.358;5.628;2023-07-30T02:36:45;100728.41;;;16.90;92.89
46303;BME280;32029;51.358;5.628;2023-07-30T02:39:13;100735.78;;;16.96;92.93
46303;BME280;32029;51.358;5.628;2023-07-30T02:41:39;100741.56;;;16.95;93.10
46303;BME280;32029;51.358;5.628;2023-07-30T02:44:06;100733.78;;;16.85;93.61
46303;BME280;32029;51.358;5.628;2023-07-30T02:46:37;100743.50;;;16.94;94.21
46303;BME280;32029;51.358;5.628;2023-07-30T02:49:14;100732.53;;;16.81;94.26
46303;BME280;32029;51.358;5.628;2023-07-30T02:51:40;100722.69;;;16.66;94.68
46303;BME280;32029;51.358;5.628;2023-07-30T02:54:20;100739.81;;;16.82;95.08
46303;BME280;32029;51.358;5.628;2023-07-30T02:56:48;100751.81;;;16.94;95.29
46303;BME280;32029;51.358;5.628;2023-07-30T02:59:22;100746.72;;;16.91;95.60
46303;BME280;32029;51.358;5.628;2023-07-30T03:01:51;100753.19;;;17.03;95.29
46303;BME280;32029;51.358;5.628;2023-07-30T03:04:19;100763.34;;;17.09;95.27
46303;BME280;32029;51.358;5.628;2023-07-30T03:06:53;100772.28;;;17.11;95.58
46303;BME280;32029;51.358;5.628;2023-07-30T03:09:23;100772.66;;;17.15;95.38
46303;BME280;32029;51.358;5.628;2023-07-30T03:11:51;100755.88;;;17.10;95.61
46303;BME280;32029;51.358;5.628;2023-07-30T03:14:23;100753.31;;;17.08;95.58
46303;BME280;32029;51.358;5.628;2023-07-30T03:16:50;100741.56;;;17.13;95.69
46303;BME280;32029;51.358;5.628;2023-07-30T03:19:23;100777.63;;;17.43;95.08
46303;BME280;32029;51.358;5.628;2023-07-30T03:21:53;100770.31;;;17.49;95.04
46303;BME280;32029;51.358;5.628;2023-07-30T03:24:20;100767.91;;;17.52;94.59
46303;BME280;32029;51.358;5.628;2023-07-30T03:26:47;100749.75;;;17.38;94.42
46303;BME280;32029;51.358;5.628;2023-07-30T03:29:15;100776.38;;;17.57;94.59
46303;BME280;32029;51.358;5.628;2023-07-30T03:31:51;100766.13;;;17.58;94.50
46303;BME280;32029;51.358;5.628;2023-07-30T03:34:20;100755.47;;;17.55;94.28
46303;BME280;32029;51.358;5.628;2023-07-30T03:36:54;100772.34;;;17.72;94.49
46303;BME280;32029;51.358;5.628;2023-07-30T03:39:21;100774.03;;;17.73;94.48
46303;BME280;32029;51.358;5.628;2023-07-30T03:41:57;100775.53;;;17.75;94.36
46303;BME280;32029;51.358;5.628;2023-07-30T03:44:33;100736.78;;;17.50;94.36
46303;BME280;32029;51.358;5.628;2023-07-30T03:47:00;100762.94;;;17.73;94.27
46303;BME280;32029;51.358;5.628;2023-07-30T03:49:34;100775.66;;;17.80;94.38
46303;BME280;32029;51.358;5.628;2023-07-30T03:52:07;100779.53;;;17.79;94.34
46303;BME280;32029;51.358;5.628;2023-07-30T03:54:35;100762.63;;;17.62;94.47
46303;BME280;32029;51.358;5.628;2023-07-30T03:57:03;100767.72;;;17.66;94.74
46303;BME280;32029;51.358;5.628;2023-07-30T03:59:35;100769.41;;;17.67;94.88
46303;BME280;32029;51.358;5.628;2023-07-30T04:02:04;100773.41;;;17.71;94.73
46303;BME280;32029;51.358;5.628;2023-07-30T04:04:34;100795.22;;;17.85;95.01
46303;BME280;32029;51.358;5.628;2023-07-30T04:07:04;100791.13;;;17.88;94.93
46303;BME280;32029;51.358;5.628;2023-07-30T04:09:33;100798.50;;;17.94;95.24
46303;BME280;32029;51.358;5.628;2023-07-30T04:12:06;100775.56;;;17.87;94.78
46303;BME280;32029;51.358;5.628;2023-07-30T04:14:33;100791.63;;;17.97;94.36
46303;BME280;32029;51.358;5.628;2023-07-30T04:17:00;100796.72;;;18.00;94.60
46303;BME280;32029;51.358;5.628;2023-07-30T04:19:32;100793.97;;;18.11;94.58
46303;BME280;32029;51.358;5.628;2023-07-30T04:22:05;100787.66;;;18.04;93.89
46303;BME280;32029;51.358;5.628;2023-07-30T04:24:38;100790.56;;;18.09;94.23
46303;BME280;32029;51.358;5.628;2023-07-30T04:27:08;100779.47;;;18.09;93.88
46303;BME280;32029;51.358;5.628;2023-07-30T04:29:35;100779.47;;;18.09;94.37
46303;BME280;32029;51.358;5.628;2023-07-30T04:32:10;100793.75;;;18.25;94.13
46303;BME280;32029;51.358;5.628;2023-07-30T04:34:43;100756.03;;;18.05;93.92
46303;BME280;32029;51.358;5.628;2023-07-30T04:37:10;100791.81;;;18.25;93.66
46303;BME280;32029;51.358;5.628;2023-07-30T04:39:39;100795.69;;;18.36;94.03
46303;BME280;32029;51.358;5.628;2023-07-30T04:42:07;100798.63;;;18.41;94.18
46303;BME280;32029;51.358;5.628;2023-07-30T04:44:40;100803.56;;;18.51;93.76
46303;BME280;32029;51.358;5.628;2023-07-30T04:47:15;100790.03;;;18.54;93.02
46303;BME280;32029;51.358;5.628;2023-07-30T04:49:42;100805.63;;;18.55;92.86
46303;BME280;32029;51.358;5.628;2023-07-30T04:52:18;100793.78;;;18.48;93.02
46303;BME280;32029;51.358;5.628;2023-07-30T04:54:51;100771.69;;;18.42;92.87
46303;BME280;32029;51.358;5.628;2023-07-30T04:57:19;100785.59;;;18.53;92.53
46303;BME280;32029;51.358;5.628;2023-07-30T04:59:46;100804.44;;;18.75;92.50
46303;BME280;32029;51.358;5.628;2023-07-30T05:02:14;100785.72;;;18.70;92.45
46303;BME280;32029;51.358;5.628;2023-07-30T05:04:41;100803.34;;;18.88;92.73
46303;BME280;32029;51.358;5.628;2023-07-30T05:07:08;100814.97;;;18.96;92.58
46303;BME280;32029;51.358;5.628;2023-07-30T05:09:34;100776.75;;;18.80;92.01
46303;BME280;32029;51.358;5.628;2023-07-30T05:12:01;100811.19;;;19.02;91.43
46303;BME280;32029;51.358;5.628;2023-07-30T05:14:29;100780.88;;;18.89;91.83
46303;BME280;32029;51.358;5.628;2023-07-30T05:16:57;100812.28;;;19.13;91.40
46303;BME280;32029;51.358;5.628;2023-07-30T05:19:24;100811.78;;;19.16;91.11
46303;BME280;32029;51.358;5.628;2023-07-30T05:21:51;100821.81;;;19.17;91.00
46303;BME280;32029;51.358;5.628;2023-07-30T05:24:18;100784.50;;;19.01;91.34
46303;BME280;32029;51.358;5.628;2023-07-30T05:26:44;100810.09;;;19.15;90.69
46303;BME280;32029;51.358;5.628;2023-07-30T05:29:12;100816.75;;;19.14;90.91
46303;BME280;32029;51.358;5.628;2023-07-30T05:31:39;100825.56;;;19.23;91.52
46303;BME280;32029;51.358;5.628;2023-07-30T05:34:06;100813.47;;;19.17;91.58
46303;BME280;32029;51.358;5.628;2023-07-30T05:36:34;100829.06;;;19.30;91.50
46303;BME280;32029;51.358;5.628;2023-07-30T05:39:02;100823.63;;;19.35;91.57
46303;BME280;32029;51.358;5.628;2023-07-30T05:41:29;100801.13;;;19.25;91.08
46303;BME280;32029;51.358;5.628;2023-07-30T05:43:55;100824.47;;;19.36;90.65
46303;BME280;32029;51.358;5.628;2023-07-30T05:46:22;100804.28;;;19.28;90.93
46303;BME280;32029;51.358;5.628;2023-07-30T05:48:49;100809.72;;;19.35;91.00
46303;BME280;32029;51.358;5.628;2023-07-30T05:51:15;100833.13;;;19.51;90.61
46303;BME280;32029;51.358;5.628;2023-07-30T05:53:42;100796.63;;;19.36;90.61
46303;BME280;32029;51.358;5.628;2023-07-30T05:56:09;100831.53;;;19.55;90.29
46303;BME280;32029;51.358;5.628;2023-07-30T05:58:37;100822.44;;;19.59;90.39
46303;BME280;32029;51.358;5.628;2023-07-30T06:01:03;100814.34;;;19.58;90.61
46303;BME280;32029;51.358;5.628;2023-07-30T06:03:34;100806.38;;;19.62;90.19
46303;BME280;32029;51.358;5.628;2023-07-30T06:06:01;100780.50;;;19.49;90.27
46303;BME280;32029;51.358;5.628;2023-07-30T06:08:28;100824.22;;;19.77;90.53
46303;BME280;32029;51.358;5.628;2023-07-30T06:11:00;100830.75;;;19.83;89.98
46303;BME280;32029;51.358;5.628;2023-07-30T06:13:27;100816.81;;;19.83;90.00
46303;BME280;32029;51.358;5.628;2023-07-30T06:16:01;100830.19;;;19.98;89.29
46303;BME280;32029;51.358;5.628;2023-07-30T06:18:28;100811.34;;;19.88;89.33
46303;BME280;32029;51.358;5.628;2023-07-30T06:20:59;100823.78;;;19.97;89.56
46303;BME280;32029;51.358;5.628;2023-07-30T06:23:30;100834.13;;;20.14;88.75
46303;BME280;32029;51.358;5.628;2023-07-30T06:26:00;100822.28;;;20.06;88.92
46303;BME280;32029;51.358;5.628;2023-07-30T06:28:32;100810.88;;;20.08;88.41
46303;BME280;32029;51.358;5.628;2023-07-30T06:31:04;100818.09;;;20.21;88.46
46303;BME280;32029;51.358;5.628;2023-07-30T06:33:34;100823.81;;;20.31;88.34
46303;BME280;32029;51.358;5.628;2023-07-30T06:36:05;100821.66;;;20.33;87.73
46303;BME280;32029;51.358;5.628;2023-07-30T06:38:32;100832.09;;;20.43;87.83
46303;BME280;32029;51.358;5.628;2023-07-30T06:41:08;100846.50;;;20.51;87.41
46303;BME280;32029;51.358;5.628;2023-07-30T06:43:41;100852.06;;;20.51;87.73
46303;BME280;32029;51.358;5.628;2023-07-30T06:46:15;100825.19;;;20.45;87.99
46303;BME280;32029;51.358;5.628;2023-07-30T06:48:46;100838.41;;;20.50;87.65
46303;BME280;32029;51.358;5.628;2023-07-30T06:51:19;100830.94;;;20.55;87.74
46303;BME280;32029;51.358;5.628;2023-07-30T06:53:53;100837.22;;;20.63;87.66
46303;BME280;32029;51.358;5.628;2023-07-30T06:56:19;100781.94;;;20.43;87.14
46303;BME280;32029;51.358;5.628;2023-07-30T06:58:47;100831.31;;;20.76;86.78
46303;BME280;32029;51.358;5.628;2023-07-30T07:01:17;100829.09;;;20.78;86.86
46303;BME280;32029;51.358;5.628;2023-07-30T07:03:47;100807.91;;;20.77;86.61
46303;BME280;32029;51.358;5.628;2023-07-30T07:06:16;100833.97;;;21.04;86.62
46303;BME280;32029;51.358;5.628;2023-07-30T07:08:45;100823.59;;;21.00;85.78
46303;BME280;32029;51.358;5.628;2023-07-30T07:11:19;100837.41;;;21.12;86.36
46303;BME280;32029;51.358;5.628;2023-07-30T07:13:50;100811.13;;;21.08;84.80
46303;BME280;32029;51.358;5.628;2023-07-30T07:16:17;100852.16;;;21.29;84.69
46303;BME280;32029;51.358;5.628;2023-07-30T07:18:45;100826.84;;;21.14;84.82
46303;BME280;32029;51.358;5.628;2023-07-30T07:21:12;100815.34;;;21.10;84.69
46303;BME280;32029;51.358;5.628;2023-07-30T07:23:38;100825.66;;;21.10;85.17
46303;BME280;32029;51.358;5.628;2023-07-30T07:26:05;100868.75;;;21.36;84.44
46303;BME280;32029;51.358;5.628;2023-07-30T07:28:32;100871.81;;;21.34;84.36
46303;BME280;32029;51.358;5.628;2023-07-30T07:30:59;100841.81;;;21.08;84.86
46303;BME280;32029;51.358;5.628;2023-07-30T07:33:26;100822.13;;;20.97;84.67
46303;BME280;32029;51.358;5.628;2023-07-30T07:36:04;100845.53;;;21.13;85.08
46303;BME280;32029;51.358;5.628;2023-07-30T07:38:32;100850.09;;;21.19;84.46
46303;BME280;32029;51.358;5.628;2023-07-30T07:41:00;100856.56;;;21.25;84.98
46303;BME280;32029;51.358;5.628;2023-07-30T07:43:27;100836.78;;;21.26;85.10
46303;BME280;32029;51.358;5.628;2023-07-30T07:45:54;100844.88;;;21.45;84.51
46303;BME280;32029;51.358;5.628;2023-07-30T07:48:20;100832.88;;;21.44;83.46
46303;BME280;32029;51.358;5.628;2023-07-30T07:50:47;100859.13;;;21.65;83.75
46303;BME280;32029;51.358;5.628;2023-07-30T07:53:14;100840.28;;;21.56;81.49
46303;BME280;32029;51.358;5.628;2023-07-30T07:55:40;100854.28;;;21.61;81.37
46303;BME280;32029;51.358;5.628;2023-07-30T07:58:08;100838.25;;;21.51;81.25
46303;BME280;32029;51.358;5.628;2023-07-30T08:00:35;100872.63;;;21.73;81.21
46303;BME280;32029;51.358;5.628;2023-07-30T08:03:01;100871.81;;;21.78;80.87
46303;BME280;32029;51.358;5.628;2023-07-30T08:05:28;100833.25;;;21.53;80.55
46303;BME280;32029;51.358;5.628;2023-07-30T08:07:56;100854.94;;;21.68;78.92
46303;BME280;32029;51.358;5.628;2023-07-30T08:10:24;100873.00;;;21.82;80.07
46303;BME280;32029;51.358;5.628;2023-07-30T08:12:51;100857.25;;;21.76;78.19
46303;BME280;32029;51.358;5.628;2023-07-30T08:15:19;100852.31;;;21.83;78.93
46303;BME280;32029;51.358;5.628;2023-07-30T08:17:46;100850.97;;;21.86;77.29
46303;BME280;32029;51.358;5.628;2023-07-30T08:20:13;100846.22;;;21.86;78.85
46303;BME280;32029;51.358;5.628;2023-07-30T08:22:41;100826.06;;;21.84;78.60
46303;BME280;32029;51.358;5.628;2023-07-30T08:25:08;100854.81;;;22.07;76.96
46303;BME280;32029;51.358;5.628;2023-07-30T08:27:35;100862.84;;;22.20;76.33
46303;BME280;32029;51.358;5.628;2023-07-30T08:30:02;100862.84;;;22.20;78.44
46303;BME280;32029;51.358;5.628;2023-07-30T08:32:32;100882.91;;;22.44;77.66
46303;BME280;32029;51.358;5.628;2023-07-30T08:34:59;100867.84;;;22.50;77.38
46303;BME280;32029;51.358;5.628;2023-07-30T08:37:26;100855.31;;;22.53;74.94
46303;BME280;32029;51.358;5.628;2023-07-30T08:39:53;100859.53;;;22.55;75.82
46303;BME280;32029;51.358;5.628;2023-07-30T08:42:23;100890.13;;;22.67;73.91
46303;BME280;32029;51.358;5.628;2023-07-30T08:44:50;100878.84;;;22.57;74.11
46303;BME280;32029;51.358;5.628;2023-07-30T08:47:18;100859.81;;;22.26;75.62
46303;BME280;32029;51.358;5.628;2023-07-30T08:49:46;100865.69;;;22.25;76.25
46303;BME280;32029;51.358;5.628;2023-07-30T08:52:13;100862.59;;;22.26;75.03
46303;BME280;32029;51.358;5.628;2023-07-30T08:54:44;100880.84;;;22.34;75.90
46303;BME280;32029;51.358;5.628;2023-07-30T08:57:13;100862.84;;;22.20;74.42
46303;BME280;32029;51.358;5.628;2023-07-30T08:59:47;100851.69;;;22.25;74.51
46303;BME280;32029;51.358;5.628;2023-07-30T09:02:34;100879.50;;;22.37;75.41
46303;BME280;32029;51.358;5.628;2023-07-30T09:05:03;100882.69;;;22.50;75.11
46303;BME280;32029;51.358;5.628;2023-07-30T09:07:30;100841.72;;;22.34;74.59
46303;BME280;32029;51.358;5.628;2023-07-30T09:09:57;100841.50;;;22.41;72.17
46303;BME280;32029;51.358;5.628;2023-07-30T09:12:35;100862.19;;;22.40;72.78
46303;BME280;32029;51.358;5.628;2023-07-30T09:15:03;100877.22;;;22.66;73.79
46303;BME280;32029;51.358;5.628;2023-07-30T09:17:31;100859.38;;;22.72;71.88
46303;BME280;32029;51.358;5.628;2023-07-30T09:20:03;100881.38;;;22.90;72.10
46303;BME280;32029;51.358;5.628;2023-07-30T09:22:32;100880.09;;;23.03;72.03
46303;BME280;32029;51.358;5.628;2023-07-30T09:25:08;100875.41;;;23.14;71.47
46303;BME280;32029;51.358;5.628;2023-07-30T09:27:35;100860.81;;;23.12;70.74
46303;BME280;32029;51.358;5.628;2023-07-30T09:30:03;100878.56;;;23.28;70.56
46303;BME280;32029;51.358;5.628;2023-07-30T09:32:34;100887.78;;;23.28;69.22
46303;BME280;32029;51.358;5.628;2023-07-30T09:35:09;100869.53;;;23.15;68.92
46303;BME280;32029;51.358;5.628;2023-07-30T09:37:40;100879.91;;;23.20;67.89
46303;BME280;32029;51.358;5.628;2023-07-30T09:40:11;100878.22;;;23.14;69.72
46303;BME280;32029;51.358;5.628;2023-07-30T09:42:48;100825.63;;;22.84;69.37
46303;BME280;32029;51.358;5.628;2023-07-30T09:45:21;100893.84;;;23.10;70.18
46303;BME280;32029;51.358;5.628;2023-07-30T09:50:24;100880.75;;;22.83;70.39
46303;BME280;32029;51.358;5.628;2023-07-30T09:55:28;100887.25;;;22.62;71.08
46303;BME280;32029;51.358;5.628;2023-07-30T09:57:54;100893.47;;;22.69;70.81
46303;BME280;32029;51.358;5.628;2023-07-30T10:00:21;100836.41;;;22.33;71.15
46303;BME280;32029;51.358;5.628;2023-07-30T10:02:49;100859.91;;;22.69;73.07
46303;BME280;32029;51.358;5.628;2023-07-30T10:05:18;100883.38;;;22.95;72.36
46303;BME280;32029;51.358;5.628;2023-07-30T10:07:56;100894.41;;;23.12;69.44
46303;BME280;32029;51.358;5.628;2023-07-30T10:13:08;100857.78;;;22.81;69.87
46303;BME280;32029;51.358;5.628;2023-07-30T10:15:38;100812.78;;;22.50;69.27
46303;BME280;32029;51.358;5.628;2023-07-30T10:18:06;100831.34;;;22.62;69.70
46303;BME280;32029;51.358;5.628;2023-07-30T10:20:34;100902.88;;;23.22;67.33
46303;BME280;32029;51.358;5.628;2023-07-30T10:30:57;100869.16;;;23.02;67.64
46303;BME280;32029;51.358;5.628;2023-07-30T10:36:10;100881.56;;;23.16;67.05
46303;BME280;32029;51.358;5.628;2023-07-30T10:38:37;100914.72;;;23.34;66.70
46303;BME280;32029;51.358;5.628;2023-07-30T10:41:12;100766.31;;;22.39;66.25
46303;BME280;32029;51.358;5.628;2023-07-30T10:43:42;100927.56;;;23.30;66.11
46303;BME280;32029;51.358;5.628;2023-07-30T10:46:10;100923.63;;;23.26;66.59
46303;BME280;32029;51.358;5.628;2023-07-30T10:48:42;100920.81;;;23.26;66.99
46303;BME280;32029;51.358;5.628;2023-07-30T10:51:13;100828.66;;;22.77;68.27
46303;BME280;32029;51.358;5.628;2023-07-30T10:53:46;100927.97;;;23.49;66.09
46303;BME280;32029;51.358;5.628;2023-07-30T10:56:17;100872.03;;;23.17;65.13
46303;BME280;32029;51.358;5.628;2023-07-30T11:01:25;100901.06;;;23.48;63.75
46303;BME280;32029;51.358;5.628;2023-07-30T11:03:53;100893.53;;;23.48;62.44
46303;BME280;32029;51.358;5.628;2023-07-30T11:06:26;100936.81;;;23.68;61.03
46303;BME280;32029;51.358;5.628;2023-07-30T11:08:53;100936.72;;;23.63;61.80
46303;BME280;32029;51.358;5.628;2023-07-30T11:11:20;100926.06;;;23.60;61.33
46303;BME280;32029;51.358;5.628;2023-07-30T11:13:49;100910.13;;;23.60;61.49
46303;BME280;32029;51.358;5.628;2023-07-30T11:16:16;100906.72;;;23.58;62.39
46303;BME280;32029;51.358;5.628;2023-07-30T11:18:43;100765.81;;;22.90;59.85
46303;BME280;32029;51.358;5.628;2023-07-30T11:21:11;100875.69;;;23.65;62.19
46303;BME280;32029;51.358;5.628;2023-07-30T11:23:40;100927.44;;;24.05;62.19
46303;BME280;32029;51.358;5.628;2023-07-30T11:26:09;100928.25;;;24.05;61.57
46303;BME280;32029;51.358;5.628;2023-07-30T11:28:37;100898.22;;;23.90;62.20
46303;BME280;32029;51.358;5.628;2023-07-30T11:31:12;100943.75;;;24.23;62.59
46303;BME280;32029;51.358;5.628;2023-07-30T11:33:44;100939.88;;;24.34;60.60
46303;BME280;32029;51.358;5.628;2023-07-30T11:36:14;100924.72;;;24.30;59.88
46303;BME280;32029;51.358;5.628;2023-07-30T11:38:41;100936.47;;;24.37;59.76
46303;BME280;32029;51.358;5.628;2023-07-30T11:41:11;100898.56;;;24.14;61.17
46303;BME280;32029;51.358;5.628;2023-07-30T11:43:44;100932.53;;;24.23;60.11
46303;BME280;32029;51.358;5.628;2023-07-30T11:46:13;100922.72;;;24.15;61.54
46303;BME280;32029;51.358;5.628;2023-07-30T11:48:46;100947.16;;;24.30;62.71
46303;BME280;32029;51.358;5.628;2023-07-30T11:51:29;100918.81;;;24.27;61.10
46303;BME280;32029;51.358;5.628;2023-07-30T11:53:56;100943.25;;;24.41;62.28
46303;BME280;32029;51.358;5.628;2023-07-30T11:58:58;100908.50;;;24.48;61.03
46303;BME280;32029;51.358;5.628;2023-07-30T12:01:28;100940.78;;;24.76;60.70
46303;BME280;32029;51.358;5.628;2023-07-30T12:04:00;100942.19;;;24.68;59.79
46303;BME280;32029;51.358;5.628;2023-07-30T12:06:47;100945.84;;;24.74;60.02
46303;BME280;32029;51.358;5.628;2023-07-30T12:09:20;100946.69;;;24.84;60.43
46303;BME280;32029;51.358;5.628;2023-07-30T12:11:59;100912.75;;;24.71;61.55
46303;BME280;32029;51.358;5.628;2023-07-30T12:14:43;100930.69;;;24.95;62.79
46303;BME280;32029;51.358;5.628;2023-07-30T12:17:09;100953.19;;;25.26;60.71
46303;BME280;32029;51.358;5.628;2023-07-30T12:19:36;100931.84;;;25.09;60.38
46303;BME280;32029;51.358;5.628;2023-07-30T12:22:04;100958.50;;;25.02;59.58
46303;BME280;32029;51.358;5.628;2023-07-30T12:24:32;100952.84;;;24.76;59.37
46303;BME280;32029;51.358;5.628;2023-07-30T12:26:59;100938.81;;;24.56;59.38
46303;BME280;32029;51.358;5.628;2023-07-30T12:29:26;100938.81;;;24.56;59.72
46303;BME280;32029;51.358;5.628;2023-07-30T12:31:54;100929.81;;;24.38;59.12
46303;BME280;32029;51.358;5.628;2023-07-30T12:34:24;100957.25;;;24.36;60.03
46303;BME280;32029;51.358;5.628;2023-07-30T12:36:51;100985.31;;;24.41;61.06
46303;BME280;32029;51.358;5.628;2023-07-30T12:39:18;100963.38;;;24.23;61.94
46303;BME280;32029;51.358;5.628;2023-07-30T12:41:46;100948.16;;;24.04;67.69
46303;BME280;32029;51.358;5.628;2023-07-30T12:44:14;100996.97;;;24.18;68.81
46303;BME280;32029;51.358;5.628;2023-07-30T12:46:42;100988.88;;;24.21;69.29
46303;BME280;32029;51.358;5.628;2023-07-30T12:49:10;100993.38;;;24.28;69.04
46303;BME280;32029;51.358;5.628;2023-07-30T12:51:37;100981.59;;;24.26;70.22
46303;BME280;32029;51.358;5.628;2023-07-30T12:54:04;100982.81;;;24.40;71.32
46303;BME280;32029;51.358;5.628;2023-07-30T12:56:31;100951.91;;;24.35;70.35
46303;BME280;32029;51.358;5.628;2023-07-30T12:58:57;100907.84;;;24.20;69.55
46303;BME280;32029;51.358;5.628;2023-07-30T13:01:24;100931.19;;;24.41;67.83
46303;BME280;32029;51.358;5.628;2023-07-30T13:03:51;100956.75;;;24.55;66.76
46303;BME280;32029;51.358;5.628;2023-07-30T13:06:21;100978.94;;;24.66;65.61
46303;BME280;32029;51.358;5.628;2023-07-30T13:08:48;100969.66;;;24.61;65.56
46303;BME280;32029;51.358;5.628;2023-07-30T13:11:16;100974.44;;;24.60;64.33
46303;BME280;32029;51.358;5.628;2023-07-30T13:13:43;100976.94;;;24.57;63.70
46303;BME280;32029;51.358;5.628;2023-07-30T13:16:10;100985.06;;;24.53;64.06
46303;BME280;32029;51.358;5.628;2023-07-30T13:18:37;100948.81;;;24.31;63.71
46303;BME280;32029;51.358;5.628;2023-07-30T13:21:04;100997.16;;;24.54;63.75
46303;BME280;32029;51.358;5.628;2023-07-30T13:23:30;100995.16;;;24.44;64.85